Time;durP1;ratioP1;P1;durP2;ratioP2;P2;SDS_P1;SDS_P2;PMS_P1;PMS_P2;Temp;Humidity;BMP_temperature;BMP_pressure;BME280_temperature;BME280_humidity;BME280_pressure;Samples;Min_cycle;Max_cycle;Signal;HPM_P1;HPM_P2
2021/06/22 00:01:47;;;;;;;32.00;19.52;;;14.90;99.90;;;;;;5070791;28;20032;-73
2021/06/22 00:04:13;;;;;;;33.58;20.23;;;14.90;99.90;;;;;;5071179;28;20106;-74
2021/06/22 00:06:39;;;;;;;35.97;20.70;;;15.00;99.90;;;;;;5070863;28;20048;-74
2021/06/22 00:09:05;;;;;;;34.88;19.40;;;14.90;99.90;;;;;;5071677;28;20028;-75
2021/06/22 00:11:32;;;;;;;31.92;19.70;;;14.90;99.90;;;;;;5071272;28;20035;-75
2021/06/22 00:13:58;;;;;;;35.75;19.90;;;14.90;99.90;;;;;;5071860;28;20466;-74
2021/06/22 00:16:24;;;;;;;32.35;19.52;;;14.90;99.90;;;;;;5071609;28;20040;-74
2021/06/22 00:18:51;;;;;;;39.53;19.98;;;14.90;99.90;;;;;;5071681;28;20385;-74
2021/06/22 00:21:17;;;;;;;36.50;20.25;;;14.90;99.90;;;;;;5071196;28;20044;-74
2021/06/22 00:23:43;;;;;;;36.05;19.98;;;14.90;99.90;;;;;;5074195;28;20036;-74
2021/06/22 00:26:09;;;;;;;33.03;19.17;;;14.90;99.90;;;;;;5076346;28;20051;-76
2021/06/22 00:28:36;;;;;;;37.13;18.58;;;14.90;99.90;;;;;;5091831;28;20028;-76
2021/06/22 00:31:02;;;;;;;30.00;18.13;;;14.80;99.90;;;;;;5084641;28;20024;-76
2021/06/22 00:33:28;;;;;;;33.33;18.98;;;14.80;99.90;;;;;;5091763;28;20508;-77
2021/06/22 00:35:55;;;;;;;31.27;18.20;;;14.80;99.90;;;;;;5077061;28;20033;-76
2021/06/22 00:38:21;;;;;;;35.08;18.83;;;14.70;99.90;;;;;;5076842;28;20044;-76
2021/06/22 00:40:47;;;;;;;32.65;18.77;;;14.70;99.90;;;;;;5089928;28;20460;-76
2021/06/22 00:43:13;;;;;;;34.10;18.08;;;14.70;99.90;;;;;;5083744;28;20044;-77
2021/06/22 00:45:42;;;;;;;30.98;16.83;;;14.70;99.90;;;;;;5085590;28;20047;-76
2021/06/22 00:48:09;;;;;;;27.52;17.23;;;14.60;99.90;;;;;;5079670;28;20029;-76
2021/06/22 00:50:36;;;;;;;32.97;17.55;;;14.60;99.90;;;;;;5087996;28;20052;-76
2021/06/22 00:53:07;;;;;;;30.35;17.27;;;14.60;99.90;;;;;;5090380;28;20028;-76
2021/06/22 00:55:33;;;;;;;25.20;15.82;;;14.60;99.90;;;;;;5085157;28;20035;-76
2021/06/22 00:58:05;;;;;;;27.45;16.33;;;14.50;99.90;;;;;;5103571;28;20062;-75
2021/06/22 01:00:33;;;;;;;26.98;15.45;;;14.40;99.90;;;;;;5093767;28;20410;-76
2021/06/22 01:03:01;;;;;;;26.90;16.27;;;14.50;99.90;;;;;;5093230;28;20051;-76
2021/06/22 01:05:34;;;;;;;24.63;14.90;;;14.50;99.90;;;;;;5073589;28;20055;-77
2021/06/22 01:08:01;;;;;;;27.00;16.52;;;14.40;99.90;;;;;;5074490;28;20474;-76
2021/06/22 01:10:29;;;;;;;25.63;15.93;;;14.40;99.90;;;;;;5084670;28;20041;-78
2021/06/22 01:12:58;;;;;;;28.17;17.38;;;14.40;99.90;;;;;;5087029;28;20044;-74
2021/06/22 01:15:27;;;;;;;28.02;16.13;;;14.40;99.90;;;;;;5083596;28;20044;-76
2021/06/22 01:18:02;;;;;;;28.52;16.27;;;14.40;99.90;;;;;;5073330;28;20045;-75
2021/06/22 01:20:33;;;;;;;28.67;16.65;;;14.30;99.90;;;;;;5072943;28;20036;-76
2021/06/22 01:23:04;;;;;;;37.15;17.65;;;14.30;99.90;;;;;;5089516;28;20044;-75
2021/06/22 01:25:33;;;;;;;31.98;17.13;;;14.30;99.90;;;;;;5079681;28;20048;-75
2021/06/22 01:28:00;;;;;;;35.35;18.00;;;14.30;99.90;;;;;;5074153;28;20033;-75
2021/06/22 01:30:28;;;;;;;33.45;17.17;;;14.30;99.90;;;;;;5081847;28;20393;-75
2021/06/22 01:33:01;;;;;;;35.10;17.52;;;14.30;99.90;;;;;;5073569;28;20466;-75
2021/06/22 01:35:31;;;;;;;32.28;16.67;;;14.20;99.90;;;;;;5074091;28;20031;-76
2021/06/22 01:38:08;;;;;;;30.90;17.10;;;14.20;99.90;;;;;;5073303;28;20048;-76
2021/06/22 01:40:57;;;;;;;38.40;17.08;;;14.20;99.90;;;;;;5073792;28;20036;-76
2021/06/22 01:43:24;;;;;;;29.60;15.68;;;14.20;99.90;;;;;;5066665;28;20486;-76
2021/06/22 01:45:52;;;;;;;45.38;16.67;;;14.10;99.90;;;;;;5083233;28;20047;-74
2021/06/22 01:48:19;;;;;;;32.85;15.85;;;14.10;99.90;;;;;;5074449;28;20056;-74
2021/06/22 01:50:46;;;;;;;31.35;16.38;;;14.10;99.90;;;;;;5073523;28;20041;-75
2021/06/22 01:53:18;;;;;;;31.25;16.60;;;14.10;99.90;;;;;;5079033;28;20389;-75
2021/06/22 01:55:49;;;;;;;37.00;16.98;;;14.10;99.90;;;;;;5083457;28;20055;-75
2021/06/22 01:58:17;;;;;;;31.23;16.75;;;14.10;99.90;;;;;;5073861;28;20057;-74
2021/06/22 02:01:00;;;;;;;31.08;16.20;;;14.10;99.90;;;;;;5090697;28;20043;-75
2021/06/22 02:03:39;;;;;;;29.13;15.80;;;14.00;99.90;;;;;;5089717;28;20049;-75
2021/06/22 02:06:05;;;;;;;31.02;16.42;;;14.10;99.90;;;;;;5073294;28;20130;-76
2021/06/22 02:08:36;;;;;;;;;;;14.00;99.90;;;;;;5073218;28;20036;-76
2021/06/22 02:11:02;;;;;;;32.15;16.77;;;14.00;99.90;;;;;;5073226;28;20281;-76
2021/06/22 02:13:32;;;;;;;32.42;16.67;;;14.00;99.90;;;;;;5072468;28;20048;-76
2021/06/22 02:16:21;;;;;;;33.28;16.55;;;14.00;99.90;;;;;;5070377;28;20040;-75
2021/06/22 02:18:50;;;;;;;31.63;16.25;;;14.00;99.90;;;;;;5071735;28;20334;-75
2021/06/22 02:21:17;;;;;;;32.72;16.30;;;13.90;99.90;;;;;;5073284;28;20029;-76
2021/06/22 02:23:44;;;;;;;35.20;16.13;;;13.90;99.90;;;;;;5071781;28;20040;-76
2021/06/22 02:26:13;;;;;;;31.95;16.08;;;13.90;99.90;;;;;;5073261;28;20040;-76
2021/06/22 02:28:40;;;;;;;29.33;15.55;;;13.90;99.90;;;;;;5081992;28;20052;-76
2021/06/22 02:31:08;;;;;;;28.08;15.50;;;13.90;99.90;;;;;;5076057;28;20053;-75
2021/06/22 02:33:35;;;;;;;31.23;16.50;;;13.90;99.90;;;;;;5090848;28;20469;-76
2021/06/22 02:36:04;;;;;;;24.50;14.30;;;13.90;99.90;;;;;;5080244;28;20524;-76
2021/06/22 02:38:39;;;;;;;27.15;14.23;;;13.90;99.90;;;;;;5072236;28;20041;-77
2021/06/22 02:41:07;;;;;;;23.55;13.95;;;13.90;99.90;;;;;;5054054;28;20413;-75
2021/06/22 02:43:35;;;;;;;25.08;13.32;;;13.90;99.90;;;;;;5086151;28;20082;-76
2021/06/22 02:46:05;;;;;;;24.52;13.77;;;13.80;99.90;;;;;;5072227;28;20401;-76
2021/06/22 02:48:32;;;;;;;26.35;13.95;;;13.80;99.90;;;;;;5072068;28;20048;-78
2021/06/22 02:50:59;;;;;;;24.33;12.82;;;13.80;99.90;;;;;;5079979;28;20037;-74
2021/06/22 02:53:32;;;;;;;24.42;13.18;;;13.80;99.90;;;;;;5083690;28;20043;-75
2021/06/22 02:55:59;;;;;;;22.73;12.60;;;13.80;99.90;;;;;;5072119;28;20037;-74
2021/06/22 02:58:34;;;;;;;22.58;12.20;;;13.70;99.90;;;;;;5071857;28;20049;-74
2021/06/22 03:01:02;;;;;;;23.83;13.20;;;13.80;99.90;;;;;;5086625;28;20056;-75
2021/06/22 03:03:30;;;;;;;23.13;12.88;;;13.70;99.90;;;;;;5072253;28;20036;-76
2021/06/22 03:06:05;;;;;;;22.38;11.90;;;13.80;99.90;;;;;;5072360;28;20040;-75
2021/06/22 03:08:46;;;;;;;;;;;13.70;99.90;;;;;;5087161;28;20052;-74
2021/06/22 03:11:12;;;;;;;21.70;10.82;;;13.70;99.90;;;;;;5072659;28;19908;-73
2021/06/22 03:13:42;;;;;;;24.23;13.05;;;13.70;99.90;;;;;;5075913;28;20043;-74
2021/06/22 03:16:14;;;;;;;17.65;11.20;;;13.80;99.90;;;;;;5079157;28;20075;-75
2021/06/22 03:18:41;;;;;;;21.98;12.57;;;13.70;99.90;;;;;;5070226;28;20393;-75
2021/06/22 03:21:11;;;;;;;19.00;10.20;;;13.80;99.90;;;;;;5085988;28;20036;-75
2021/06/22 03:23:38;;;;;;;16.55;11.00;;;13.70;99.90;;;;;;5070358;28;20044;-75
2021/06/22 03:26:04;;;;;;;20.48;9.63;;;13.70;99.90;;;;;;5071241;28;20048;-75
2021/06/22 03:28:31;;;;;;;14.70;9.10;;;13.70;99.90;;;;;;5084621;28;20044;-77
2021/06/22 03:30:57;;;;;;;16.08;9.32;;;13.70;99.90;;;;;;5071653;28;20039;-76
2021/06/22 03:33:23;;;;;;;15.88;9.18;;;13.70;99.90;;;;;;5072614;28;20496;-75
2021/06/22 03:35:49;;;;;;;13.82;8.50;;;13.70;99.90;;;;;;5071546;28;20344;-76
2021/06/22 03:38:17;;;;;;;13.80;8.75;;;13.80;99.90;;;;;;5070276;28;20049;-75
2021/06/22 03:40:43;;;;;;;14.32;8.85;;;13.80;99.90;;;;;;5070013;28;20041;-75
2021/06/22 03:43:10;;;;;;;15.77;8.40;;;13.80;99.90;;;;;;5071634;28;20044;-75
2021/06/22 03:45:45;;;;;;;16.42;8.80;;;13.80;99.90;;;;;;5084008;28;20040;-75
2021/06/22 03:48:11;;;;;;;12.98;9.05;;;13.80;99.90;;;;;;5079444;28;20477;-75
2021/06/22 03:50:40;;;;;;;13.18;8.27;;;13.90;99.90;;;;;;5070746;28;20045;-74
2021/06/22 03:53:07;;;;;;;15.95;8.32;;;13.80;99.90;;;;;;5071836;28;20036;-75
2021/06/22 03:55:34;;;;;;;14.55;8.38;;;13.80;99.90;;;;;;5070846;28;20041;-77
2021/06/22 03:58:15;;;;;;;13.85;8.02;;;13.80;99.90;;;;;;5078255;28;20060;-74
2021/06/22 04:00:49;;;;;;;14.32;7.40;;;13.90;99.90;;;;;;5077392;28;20120;-75
2021/06/22 04:03:16;;;;;;;12.20;7.75;;;13.90;99.90;;;;;;5074563;28;20040;-73
2021/06/22 04:05:50;;;;;;;14.82;8.38;;;13.90;99.90;;;;;;5073798;28;20044;-73
2021/06/22 04:08:25;;;;;;;14.93;7.70;;;14.10;99.90;;;;;;5084901;28;20064;-74
2021/06/22 04:10:57;;;;;;;10.07;7.30;;;14.00;99.90;;;;;;5085593;28;20041;-74
2021/06/22 04:13:23;;;;;;;12.20;7.05;;;14.00;99.90;;;;;;5076022;28;20048;-74
2021/06/22 04:15:55;;;;;;;11.40;7.13;;;13.90;99.90;;;;;;5074144;28;20310;-74
2021/06/22 04:18:21;;;;;;;10.60;6.90;;;14.00;99.90;;;;;;5089260;28;20044;-73
2021/06/22 04:20:49;;;;;;;11.77;7.05;;;14.10;99.90;;;;;;5075226;28;20067;-77
2021/06/22 04:23:18;;;;;;;11.15;6.63;;;14.10;99.90;;;;;;5090938;28;20047;-75
2021/06/22 04:25:44;;;;;;;8.98;6.05;;;14.10;99.90;;;;;;5075004;28;20036;-75
2021/06/22 04:28:12;;;;;;;8.07;5.88;;;14.10;99.90;;;;;;5078126;28;20382;-77
2021/06/22 04:30:38;;;;;;;8.35;5.82;;;14.20;99.90;;;;;;5074834;28;20489;-77
2021/06/22 04:33:07;;;;;;;7.63;5.25;;;14.10;99.90;;;;;;5078914;28;20543;-77
2021/06/22 04:35:33;;;;;;;7.78;5.90;;;14.10;99.90;;;;;;5073610;28;20044;-77
2021/06/22 04:38:02;;;;;;;7.78;5.30;;;14.10;99.90;;;;;;5082860;28;20032;-76
2021/06/22 04:40:29;;;;;;;8.10;5.90;;;14.10;99.90;;;;;;5075034;28;20380;-76
2021/06/22 04:42:56;;;;;;;9.30;6.50;;;14.10;99.90;;;;;;5074058;28;20037;-76
2021/06/22 04:45:23;;;;;;;8.90;5.70;;;14.20;99.90;;;;;;5084352;28;20040;-77
2021/06/22 04:47:49;;;;;;;8.00;5.22;;;14.10;99.90;;;;;;5074234;28;20059;-76
2021/06/22 04:50:15;;;;;;;9.15;5.25;;;14.20;99.90;;;;;;5075294;28;20037;-76
2021/06/22 04:52:41;;;;;;;8.70;5.93;;;14.30;99.90;;;;;;5074354;28;20032;-77
2021/06/22 04:55:12;;;;;;;8.13;5.53;;;14.30;99.90;;;;;;5075341;28;20032;-77
2021/06/22 04:57:44;;;;;;;10.18;5.43;;;14.20;99.90;;;;;;5073403;28;20045;-77
2021/06/22 05:00:12;;;;;;;7.60;4.75;;;14.30;99.90;;;;;;5075023;28;20036;-78
2021/06/22 05:02:43;;;;;;;5.97;4.47;;;14.30;99.90;;;;;;5071565;28;20492;-79
2021/06/22 05:05:11;;;;;;;8.93;4.93;;;14.40;99.90;;;;;;5086206;28;20032;-78
2021/06/22 05:07:39;;;;;;;6.55;4.82;;;14.50;99.90;;;;;;5075536;28;20075;-79
2021/06/22 05:10:06;;;;;;;5.85;4.38;;;14.40;99.90;;;;;;5073410;28;20051;-78
2021/06/22 05:12:32;;;;;;;6.88;4.10;;;14.40;99.90;;;;;;5074875;28;20024;-78
2021/06/22 05:14:59;;;;;;;5.13;4.28;;;14.50;99.90;;;;;;5082561;28;20036;-77
2021/06/22 05:17:25;;;;;;;5.70;3.45;;;14.70;99.90;;;;;;5074992;28;20043;-79
2021/06/22 05:19:51;;;;;;;4.38;3.30;;;14.80;99.90;;;;;;5073628;28;20039;-77
2021/06/22 05:22:17;;;;;;;4.03;3.38;;;14.90;99.90;;;;;;5081647;28;20059;-77
2021/06/22 05:24:43;;;;;;;5.50;3.47;;;14.90;99.90;;;;;;5078885;28;20477;-76
2021/06/22 05:27:12;;;;;;;4.47;3.10;;;14.90;99.90;;;;;;5089219;28;20036;-77
2021/06/22 05:29:39;;;;;;;5.75;2.92;;;14.90;99.90;;;;;;5073484;28;20482;-78
2021/06/22 05:32:06;;;;;;;4.05;3.17;;;14.80;99.90;;;;;;5075518;28;20054;-75
2021/06/22 05:34:32;;;;;;;5.95;3.15;;;14.90;99.90;;;;;;5092108;28;20114;-78
2021/06/22 05:36:59;;;;;;;5.10;2.90;;;14.90;99.90;;;;;;5090639;28;20024;-75
2021/06/22 05:39:26;;;;;;;9.18;3.28;;;15.10;99.90;;;;;;5081696;28;20553;-76
2021/06/22 05:41:52;;;;;;;2.55;2.20;;;15.70;99.90;;;;;;5094677;28;20028;-75
2021/06/22 05:44:18;;;;;;;3.00;2.13;;;16.20;99.90;;;;;;5089009;28;20048;-75
2021/06/22 05:46:45;;;;;;;3.60;1.80;;;16.70;99.90;;;;;;5074622;28;20132;-76
2021/06/22 05:49:11;;;;;;;3.58;1.75;;;16.60;99.90;;;;;;5073070;28;20057;-75
2021/06/22 05:51:37;;;;;;;3.90;1.65;;;16.70;99.90;;;;;;5084703;28;20033;-77
2021/06/22 05:54:03;;;;;;;4.32;1.83;;;16.90;99.90;;;;;;5074521;28;20470;-75
2021/06/22 05:56:30;;;;;;;2.40;1.90;;;16.60;99.90;;;;;;5073712;28;20043;-75
2021/06/22 05:58:56;;;;;;;2.58;1.65;;;16.60;99.90;;;;;;5071778;28;20131;-75
2021/06/22 06:01:22;;;;;;;5.07;1.73;;;16.20;99.90;;;;;;5073133;28;20366;-75
2021/06/22 06:03:49;;;;;;;3.85;1.75;;;16.10;99.90;;;;;;5073498;28;20040;-75
2021/06/22 06:06:15;;;;;;;2.42;1.85;;;16.00;99.90;;;;;;5077921;28;20037;-75
2021/06/22 06:08:42;;;;;;;2.10;1.52;;;15.70;99.90;;;;;;5075062;28;20382;-75
2021/06/22 06:11:08;;;;;;;4.97;2.47;;;15.60;99.90;;;;;;5074875;28;20028;-75
2021/06/22 06:13:37;;;;;;;3.50;2.10;;;15.60;99.90;;;;;;5073069;28;20045;-76
2021/06/22 06:16:05;;;;;;;4.85;2.45;;;15.60;99.90;;;;;;5073627;28;20028;-75
2021/06/22 06:18:32;;;;;;;2.78;2.00;;;15.90;99.90;;;;;;5073616;28;20084;-77
2021/06/22 06:20:59;;;;;;;3.30;2.10;;;16.00;99.90;;;;;;5082310;28;20036;-74
2021/06/22 06:23:32;;;;;;;2.80;2.03;;;16.10;99.90;;;;;;5072909;28;20049;-72
2021/06/22 06:25:59;;;;;;;3.28;1.60;;;16.20;99.90;;;;;;5073360;28;20036;-74
2021/06/22 06:28:29;;;;;;;3.30;1.60;;;16.10;99.90;;;;;;5073495;28;20056;-73
2021/06/22 06:30:55;;;;;;;4.70;2.17;;;16.00;99.90;;;;;;5078100;28;20044;-73
2021/06/22 06:33:21;;;;;;;4.28;2.15;;;16.00;99.90;;;;;;5072328;28;20481;-74
2021/06/22 06:35:48;;;;;;;4.18;2.00;;;15.90;99.90;;;;;;5083159;28;20477;-73
2021/06/22 06:38:14;;;;;;;3.47;2.22;;;16.00;99.90;;;;;;5086416;28;20060;-73
2021/06/22 06:40:40;;;;;;;3.42;1.77;;;16.00;99.90;;;;;;5073230;28;20450;-73
2021/06/22 06:43:06;;;;;;;5.97;1.90;;;16.00;99.90;;;;;;5072929;28;20037;-73
2021/06/22 06:45:33;;;;;;;4.90;2.28;;;16.00;99.90;;;;;;5072990;28;20032;-72
2021/06/22 06:47:59;;;;;;;3.42;1.77;;;16.00;99.90;;;;;;5079683;28;20036;-74
2021/06/22 06:50:26;;;;;;;3.42;2.17;;;16.00;99.90;;;;;;5072262;28;20048;-73
2021/06/22 06:52:52;;;;;;;3.53;1.88;;;16.20;99.90;;;;;;5072497;28;20465;-73
2021/06/22 06:55:28;;;;;;;3.53;2.05;;;16.30;99.90;;;;;;5081796;28;20040;-73
2021/06/22 06:57:56;;;;;;;4.13;1.70;;;16.40;99.90;;;;;;5071954;28;20060;-73
2021/06/22 07:00:24;;;;;;;4.97;1.40;;;16.30;99.90;;;;;;5072843;28;20035;-74
2021/06/22 07:02:50;;;;;;;5.65;2.08;;;16.30;99.90;;;;;;5072290;28;20031;-74
2021/06/22 07:05:17;;;;;;;3.47;1.95;;;16.30;99.90;;;;;;5073192;28;20039;-74
2021/06/22 07:07:43;;;;;;;2.25;1.45;;;16.40;99.90;;;;;;5071970;28;20059;-74
2021/06/22 07:10:11;;;;;;;4.93;1.50;;;16.50;99.90;;;;;;5072510;28;20029;-74
2021/06/22 07:12:38;;;;;;;2.65;1.92;;;16.60;99.90;;;;;;5071923;28;20044;-74
2021/06/22 07:15:05;;;;;;;2.63;1.45;;;16.70;99.90;;;;;;5073071;28;20032;-75
2021/06/22 07:17:31;;;;;;;2.50;1.40;;;16.80;99.90;;;;;;5071783;28;20044;-75
2021/06/22 07:19:58;;;;;;;3.42;1.80;;;17.10;99.90;;;;;;5072407;28;20025;-74
2021/06/22 07:22:24;;;;;;;1.95;1.35;;;17.20;99.90;;;;;;5072778;28;20028;-75
2021/06/22 07:24:51;;;;;;;3.67;1.40;;;17.20;99.90;;;;;;5071556;28;20497;-74
2021/06/22 07:27:17;;;;;;;2.40;1.85;;;17.30;99.90;;;;;;5084037;28;20044;-74
2021/06/22 07:29:44;;;;;;;2.42;1.73;;;17.40;99.90;;;;;;5077439;28;20032;-74
2021/06/22 07:32:10;;;;;;;3.70;1.70;;;17.30;99.90;;;;;;5084372;28;20020;-74
2021/06/22 07:34:37;;;;;;;2.33;1.60;;;17.30;99.90;;;;;;5072456;28;20039;-75
2021/06/22 07:37:03;;;;;;;2.13;1.20;;;17.30;99.90;;;;;;5071423;28;20059;-76
2021/06/22 07:39:29;;;;;;;4.35;1.70;;;17.50;99.90;;;;;;5087837;28;20032;-75
2021/06/22 07:41:56;;;;;;;2.10;1.48;;;17.50;99.90;;;;;;5071921;28;20036;-74
2021/06/22 07:44:22;;;;;;;4.22;1.38;;;17.50;99.90;;;;;;5072425;28;20032;-75
2021/06/22 07:46:48;;;;;;;3.38;1.60;;;17.50;99.90;;;;;;5071817;28;20039;-75
2021/06/22 07:49:14;;;;;;;2.47;1.90;;;17.40;99.90;;;;;;5071095;28;20044;-74
2021/06/22 07:51:41;;;;;;;3.03;1.90;;;17.50;99.90;;;;;;5072078;28;20032;-75
2021/06/22 07:54:08;;;;;;;3.28;2.03;;;17.50;99.90;;;;;;5072723;28;20025;-75
2021/06/22 07:56:34;;;;;;;2.70;1.83;;;17.50;99.90;;;;;;5072239;28;20508;-76
2021/06/22 07:59:00;;;;;;;5.20;1.50;;;17.60;99.90;;;;;;5071954;28;20048;-76
2021/06/22 08:01:27;;;;;;;4.05;1.75;;;17.60;99.90;;;;;;5072020;28;20033;-75
2021/06/22 08:03:53;;;;;;;4.15;1.70;;;17.60;99.90;;;;;;5079306;28;20044;-73
2021/06/22 08:06:20;;;;;;;2.40;1.80;;;17.70;99.90;;;;;;5072005;28;20027;-75
2021/06/22 08:08:46;;;;;;;5.03;2.40;;;17.70;99.90;;;;;;5071061;28;20055;-74
2021/06/22 08:11:12;;;;;;;3.05;1.77;;;17.70;99.90;;;;;;5090738;28;20032;-75
2021/06/22 08:13:39;;;;;;;5.43;1.90;;;17.60;99.90;;;;;;5087162;28;20027;-75
2021/06/22 08:16:06;;;;;;;3.75;2.40;;;17.50;99.90;;;;;;5072009;28;20028;-75
2021/06/22 08:18:33;;;;;;;4.70;2.13;;;17.50;99.90;;;;;;5072109;28;20469;-74
2021/06/22 08:21:01;;;;;;;3.88;2.58;;;17.50;99.90;;;;;;5072091;28;20033;-75
2021/06/22 08:23:28;;;;;;;2.80;2.38;;;17.50;99.90;;;;;;5076199;28;20353;-74
2021/06/22 08:25:55;;;;;;;3.58;2.70;;;17.30;99.90;;;;;;5083785;28;20485;-75
2021/06/22 08:28:22;;;;;;;3.13;2.78;;;17.30;99.90;;;;;;5089587;28;20047;-75
2021/06/22 08:30:50;;;;;;;3.67;2.30;;;17.30;99.90;;;;;;5074636;28;20033;-75
2021/06/22 08:33:17;;;;;;;4.85;2.70;;;17.30;99.90;;;;;;5071819;28;20035;-74
2021/06/22 08:35:43;;;;;;;3.53;2.88;;;17.30;99.90;;;;;;5071445;28;20040;-74
2021/06/22 08:38:11;;;;;;;7.15;2.83;;;17.20;99.90;;;;;;5071655;28;20663;-74
2021/06/22 08:40:39;;;;;;;4.10;3.00;;;17.20;99.90;;;;;;5070999;28;20432;-73
2021/06/22 08:43:07;;;;;;;4.13;3.45;;;17.10;99.90;;;;;;5071488;28;20049;-73
2021/06/22 08:45:35;;;;;;;3.58;3.08;;;17.10;99.90;;;;;;5075450;28;20036;-73
2021/06/22 08:48:06;;;;;;;3.25;2.65;;;17.20;99.90;;;;;;5074137;28;20036;-74
2021/06/22 08:50:33;;;;;;;6.50;3.08;;;17.20;99.90;;;;;;5075687;28;20029;-75
2021/06/22 08:53:00;;;;;;;3.85;3.22;;;17.20;99.90;;;;;;5074298;28;20029;-75
2021/06/22 08:55:26;;;;;;;6.13;4.07;;;17.20;99.90;;;;;;5074618;28;20055;-74
2021/06/22 08:57:54;;;;;;;4.72;3.60;;;17.20;99.90;;;;;;5073716;28;20048;-76
2021/06/22 09:00:21;;;;;;;7.22;3.80;;;17.40;99.90;;;;;;5074826;28;20049;-75
2021/06/22 09:03:06;;;;;;;4.97;4.00;;;17.30;99.90;;;;;;5074566;28;20033;-76
2021/06/22 09:05:32;;;;;;;5.63;4.13;;;17.20;99.90;;;;;;5075513;28;20033;-76
2021/06/22 09:07:59;;;;;;;6.97;3.25;;;17.30;99.90;;;;;;5075724;28;20028;-76
2021/06/22 09:10:32;;;;;;;5.57;3.40;;;17.40;99.90;;;;;;5074856;28;20036;-76
2021/06/22 09:13:34;;;;;;;5.70;2.90;;;17.70;99.90;;;;;;5074237;28;20484;-76
2021/06/22 09:16:00;;;;;;;4.65;3.25;;;18.00;99.90;;;;;;5041788;28;20029;-75
2021/06/22 09:18:26;;;;;;;5.50;2.70;;;18.10;99.90;;;;;;5070253;28;20053;-75
2021/06/22 09:20:55;;;;;;;3.10;2.35;;;18.10;99.90;;;;;;5073576;28;20039;-76
2021/06/22 09:23:33;;;;;;;3.35;2.55;;;18.10;99.90;;;;;;5091454;28;20032;-75
2021/06/22 09:26:00;;;;;;;3.03;1.92;;;18.10;99.90;;;;;;5074036;28;20488;-75
2021/06/22 09:28:29;;;;;;;3.30;2.25;;;18.10;99.90;;;;;;5074503;28;20041;-74
2021/06/22 09:30:56;;;;;;;2.28;2.03;;;18.10;99.90;;;;;;5074171;28;20029;-75
2021/06/22 09:33:32;;;;;;;4.65;2.20;;;17.90;99.90;;;;;;5085777;28;20029;-75
2021/06/22 09:36:07;;;;;;;3.42;2.42;;;17.60;99.90;;;;;;5074189;28;20041;-75
2021/06/22 09:38:47;;;;;;;3.25;2.13;;;17.60;99.90;;;;;;5074175;28;20036;-75
2021/06/22 09:41:18;;;;;;;2.53;1.83;;;17.70;99.90;;;;;;5074347;28;20036;-74
2021/06/22 09:43:53;;;;;;;;;;;17.70;99.90;;;;;;5074531;28;20033;-75
2021/06/22 09:46:43;;;;;;;5.05;2.03;;;17.70;99.90;;;;;;5074232;28;19909;-75
2021/06/22 09:49:12;;;;;;;5.10;2.13;;;17.60;99.90;;;;;;5072400;28;20052;-75
2021/06/22 09:51:51;;;;;;;3.53;2.40;;;17.70;99.90;;;;;;5074076;28;20286;-75
2021/06/22 09:54:24;;;;;;;3.65;2.55;;;17.70;99.90;;;;;;5073579;28;20512;-74
2021/06/22 09:57:01;;;;;;;4.53;2.40;;;17.90;99.90;;;;;;5072741;28;20501;-75
2021/06/22 09:59:31;;;;;;;3.83;1.85;;;18.00;99.90;;;;;;5074083;28;20044;-75
2021/06/22 10:02:08;;;;;;;4.35;2.03;;;18.00;99.90;;;;;;5073348;28;20484;-75
2021/06/22 10:04:35;;;;;;;2.72;1.73;;;18.00;99.90;;;;;;5076653;28;20375;-75
2021/06/22 10:07:02;;;;;;;1.92;1.65;;;18.00;99.90;;;;;;5083291;28;20129;-75
2021/06/22 10:09:30;;;;;;;2.95;1.88;;;17.80;99.90;;;;;;5088029;28;20048;-75
2021/06/22 10:12:07;;;;;;;3.15;1.77;;;17.80;99.90;;;;;;5093669;28;20025;-76
2021/06/22 10:14:49;;;;;;;2.40;1.73;;;17.70;99.90;;;;;;5092968;28;20033;-75
2021/06/22 10:17:21;;;;;;;2.28;1.70;;;17.80;99.90;;;;;;5090865;28;20035;-75
2021/06/22 10:19:52;;;;;;;3.30;1.75;;;17.80;99.90;;;;;;5077349;28;20028;-76
2021/06/22 10:22:21;;;;;;;2.45;1.45;;;17.90;99.90;;;;;;5073720;28;20370;-76
2021/06/22 10:24:48;;;;;;;2.75;1.52;;;18.10;99.90;;;;;;5073233;28;20037;-75
2021/06/22 10:27:19;;;;;;;2.42;2.03;;;18.30;99.90;;;;;;5073002;28;20049;-76
2021/06/22 10:29:50;;;;;;;2.40;1.80;;;18.50;99.90;;;;;;5087710;28;20052;-75
2021/06/22 10:32:16;;;;;;;2.83;1.27;;;18.60;99.90;;;;;;5072971;28;20513;-75
2021/06/22 10:34:47;;;;;;;2.03;1.52;;;18.60;99.90;;;;;;5073110;28;20485;-76
2021/06/22 10:37:17;;;;;;;2.00;1.35;;;18.50;99.90;;;;;;5073101;28;20500;-74
2021/06/22 10:39:54;;;;;;;;;;;18.60;99.90;;;;;;5072711;28;20048;-75
2021/06/22 10:42:21;;;;;;;2.70;1.40;;;18.80;99.90;;;;;;5073152;28;19931;-74
2021/06/22 10:45:02;;;;;;;2.97;1.08;;;18.90;99.90;;;;;;5072824;28;20039;-76
2021/06/22 10:47:35;;;;;;;;;;;18.90;99.90;;;;;;5063639;28;20040;-76
2021/06/22 10:50:23;;;;;;;1.83;1.05;;;18.90;99.90;;;;;;5072731;28;19924;-76
2021/06/22 10:52:53;;;;;;;2.78;1.73;;;18.80;99.90;;;;;;5071560;28;20505;-76
2021/06/22 10:55:20;;;;;;;2.03;1.50;;;18.80;99.90;;;;;;5071904;28;20047;-75
2021/06/22 11:00:56;;;;;;;5.13;1.70;;;18.70;99.90;;;;;;5072750;28;20410;-76
2021/06/22 11:03:28;;;;;;;2.90;1.60;;;18.40;99.90;;;;;;5067042;28;20052;-76
2021/06/22 11:06:11;;;;;;;2.65;1.50;;;18.30;99.90;;;;;;5072078;28;20028;-76
2021/06/22 11:08:41;;;;;;;3.58;1.77;;;18.10;99.90;;;;;;5072570;28;20039;-75
2021/06/22 11:11:07;;;;;;;3.63;1.73;;;18.10;99.90;;;;;;5072560;28;20025;-75
2021/06/22 11:13:40;;;;;;;2.78;1.58;;;18.10;99.90;;;;;;5080419;28;20036;-75
2021/06/22 11:16:19;;;;;;;2.80;2.05;;;18.00;99.90;;;;;;5072445;28;20032;-74
2021/06/22 11:21:43;;;;;;;4.18;2.05;;;18.10;99.90;;;;;;5088270;28;20032;-74
2021/06/22 11:24:39;;;;;;;4.07;2.05;;;18.20;99.90;;;;;;5065880;28;20033;-75
2021/06/22 11:27:06;;;;;;;2.30;2.08;;;18.10;99.90;;;;;;5067668;28;20389;-75
2021/06/22 11:29:32;;;;;;;5.85;2.03;;;18.10;99.90;;;;;;5072529;28;20043;-76
2021/06/22 11:32:00;;;;;;;2.85;2.35;;;17.90;99.90;;;;;;5073535;28;20028;-76
2021/06/22 11:34:34;;;;;;;3.45;2.20;;;17.90;99.90;;;;;;5074414;28;20044;-76
2021/06/22 11:37:07;;;;;;;2.92;2.65;;;17.90;99.90;;;;;;5076617;28;20036;-77
2021/06/22 11:39:34;;;;;;;5.50;3.35;;;17.70;99.90;;;;;;5074973;28;20043;-76
2021/06/22 11:42:10;;;;;;;5.53;2.60;;;17.70;99.90;;;;;;5074292;28;20036;-76
2021/06/22 11:44:48;;;;;;;5.82;3.08;;;17.70;99.90;;;;;;5091056;28;20036;-76
2021/06/22 11:47:26;;;;;;;6.05;3.55;;;17.70;99.90;;;;;;5090890;28;20044;-76
2021/06/22 11:50:00;;;;;;;3.45;2.88;;;17.80;99.90;;;;;;5071704;28;20362;-77
2021/06/22 11:52:36;;;;;;;7.57;3.25;;;17.90;99.90;;;;;;5079954;28;20060;-76
2021/06/22 11:55:05;;;;;;;5.10;2.90;;;17.90;99.90;;;;;;5071150;28;20033;-75
2021/06/22 11:57:33;;;;;;;4.10;2.75;;;18.00;99.90;;;;;;5070519;28;20065;-76
2021/06/22 12:00:16;;;;;;;4.05;2.88;;;18.10;99.90;;;;;;5071876;28;20051;-75
2021/06/22 12:02:53;;;;;;;3.35;2.85;;;18.00;99.90;;;;;;5072367;28;20040;-76
2021/06/22 12:05:21;;;;;;;5.18;3.63;;;18.00;99.90;;;;;;5072106;28;20028;-76
2021/06/22 12:07:50;;;;;;;5.38;3.53;;;18.00;99.90;;;;;;5071502;28;20032;-75
2021/06/22 12:10:18;;;;;;;6.05;2.92;;;18.00;99.90;;;;;;5071688;28;20508;-76
2021/06/22 12:12:46;;;;;;;3.78;2.90;;;18.00;99.90;;;;;;5076580;28;20410;-76
2021/06/22 12:15:14;;;;;;;5.30;3.08;;;18.10;99.90;;;;;;5086908;28;20497;-75
2021/06/22 12:17:48;;;;;;;5.38;3.60;;;18.10;99.90;;;;;;5073480;28;20025;-76
2021/06/22 12:20:22;;;;;;;5.80;3.40;;;18.10;99.90;;;;;;5075557;28;20041;-75
2021/06/22 12:23:04;;;;;;;4.75;3.50;;;18.10;99.90;;;;;;5074724;28;20033;-76
2021/06/22 12:25:38;;;;;;;3.80;3.40;;;18.20;99.90;;;;;;5075697;28;20044;-76
2021/06/22 12:28:06;;;;;;;4.82;3.97;;;18.10;99.90;;;;;;5075716;28;20036;-75
2021/06/22 12:30:41;;;;;;;6.03;3.97;;;18.10;99.90;;;;;;5075737;28;20044;-75
2021/06/22 12:33:18;;;;;;;4.15;3.75;;;18.30;99.90;;;;;;5075543;28;20373;-75
2021/06/22 12:35:51;;;;;;;6.97;3.85;;;18.20;99.90;;;;;;5076288;28;20378;-76
2021/06/22 12:38:19;;;;;;;4.43;3.47;;;18.10;99.90;;;;;;5076157;28;20036;-76
2021/06/22 12:40:49;;;;;;;6.50;4.03;;;17.90;99.90;;;;;;5077624;28;20067;-77
2021/06/22 12:43:17;;;;;;;4.03;3.63;;;17.80;99.90;;;;;;5075728;28;20378;-76
2021/06/22 12:45:48;;;;;;;4.07;3.28;;;17.80;99.90;;;;;;5075430;28;20040;-76
2021/06/22 12:48:14;;;;;;;;;;;17.70;99.90;;;;;;5077857;28;20738;-76
2021/06/22 12:50:41;;;;;;;5.85;4.18;;;17.60;99.90;;;;;;5094087;28;19916;-77
2021/06/22 12:53:10;;;;;;;5.00;4.35;;;17.60;99.90;;;;;;5082873;28;20053;-77
2021/06/22 12:55:46;;;;;;;7.05;5.38;;;17.40;99.90;;;;;;5075602;28;20493;-75
2021/06/22 12:58:14;;;;;;;8.05;5.28;;;17.40;99.90;;;;;;5075162;28;20053;-76
2021/06/22 13:00:47;;;;;;;5.78;5.18;;;17.30;99.90;;;;;;5073677;28;20418;-76